createdAt,value
2022-09-26T00:00:34.936Z,100562.81
2022-09-26T00:05:36.983Z,100563.66
2022-09-26T00:10:38.274Z,100556.34
2022-09-26T00:15:39.582Z,100545.03
2022-09-26T00:20:40.887Z,100534.00
2022-09-26T00:25:48.984Z,100544.97
2022-09-26T00:30:50.441Z,100534.22
2022-09-26T00:35:52.434Z,100526.41
2022-09-26T00:40:53.983Z,100523.47
2022-09-26T00:46:01.685Z,100522.56
2022-09-26T00:51:03.302Z,100517.00
2022-09-26T00:56:07.398Z,100508.38
2022-09-26T01:01:09.299Z,100488.53
2022-09-26T01:06:11.316Z,100483.59
2022-09-26T01:11:17.239Z,100484.06
2022-09-26T01:16:18.829Z,100473.72
2022-09-26T01:21:37.461Z,100463.44
2022-09-26T01:27:01.355Z,100456.72
2022-09-26T01:32:27.546Z,100441.94
2022-09-26T01:37:44.632Z,100430.66
2022-09-26T01:42:45.904Z,100439.72
2022-09-26T01:47:52.276Z,100429.25
2022-09-26T01:52:58.994Z,100423.47
2022-09-26T01:58:12.989Z,100415.59
2022-09-26T02:03:17.118Z,100401.69
2022-09-26T02:08:24.355Z,100406.25
2022-09-26T02:13:30.064Z,100402.41
2022-09-26T02:18:34.941Z,100398.97
2022-09-26T02:23:36.256Z,100392.16
2022-09-26T02:28:37.624Z,100391.00
2022-09-26T02:33:39.125Z,100379.25
2022-09-26T02:38:40.433Z,100368.19
2022-09-26T02:43:47.706Z,100361.03
2022-09-26T02:49:04.301Z,100356.91
2022-09-26T02:54:12.108Z,100357.78
2022-09-26T02:59:21.444Z,100347.22
2022-09-26T03:04:38.136Z,100343.44
2022-09-26T03:09:41.569Z,100331.03
2022-09-26T03:14:44.377Z,100330.00
2022-09-26T03:19:52.576Z,100325.91
2022-09-26T03:24:54.056Z,100324.03
2022-09-26T03:29:55.362Z,100316.00
2022-09-26T03:34:56.741Z,100302.44
2022-09-26T03:39:58.042Z,100288.41
2022-09-26T03:44:59.827Z,100292.75
2022-09-26T03:50:01.365Z,100274.63
2022-09-26T03:55:02.736Z,100267.00
2022-09-26T04:00:04.283Z,100249.28
2022-09-26T04:05:05.971Z,100237.63
2022-09-26T04:10:07.535Z,100236.06
2022-09-26T04:15:09.071Z,100227.00
2022-09-26T04:20:10.378Z,100218.50
2022-09-26T04:25:11.726Z,100205.34
2022-09-26T04:30:13.563Z,100199.88
2022-09-26T04:35:14.859Z,100184.94
2022-09-26T04:40:16.217Z,100186.53
2022-09-26T04:45:18.371Z,100188.25
2022-09-26T04:50:19.713Z,100183.47
2022-09-26T04:55:21.009Z,100175.69
2022-09-26T05:00:23.479Z,100169.97
2022-09-26T05:05:24.839Z,100158.94
2022-09-26T05:10:26.153Z,100153.84
2022-09-26T05:15:27.821Z,100155.81
2022-09-26T05:20:31.352Z,100145.22
2022-09-26T05:25:56.585Z,100142.81
2022-09-26T05:30:57.881Z,100142.03
2022-09-26T05:35:59.170Z,100141.75
2022-09-26T05:41:00.733Z,100139.75
2022-09-26T05:46:06.221Z,100136.66
2022-09-26T05:51:10.917Z,100129.69
2022-09-26T05:56:18.270Z,100131.75
2022-09-26T06:01:20.319Z,100131.06
2022-09-26T06:06:21.718Z,100125.91
2022-09-26T06:11:24.929Z,100117.53
2022-09-26T06:16:26.792Z,100114.31
2022-09-26T06:21:28.207Z,100097.03
2022-09-26T06:26:29.502Z,100095.78
2022-09-26T06:31:30.996Z,100094.41
2022-09-26T06:36:33.649Z,100080.56
2022-09-26T06:41:35.230Z,100081.44
2022-09-26T06:46:36.610Z,100076.41
2022-09-26T06:51:38.254Z,100058.94
2022-09-26T06:56:39.569Z,100046.09
2022-09-26T07:01:41.455Z,100034.41
2022-09-26T07:06:42.896Z,100028.75
2022-09-26T07:12:12.761Z,100014.59
2022-09-26T07:17:08.378Z,100015.66
2022-09-26T07:22:09.897Z,100006.56
2022-09-26T07:27:11.319Z,99993.69
2022-09-26T07:32:13.170Z,99990.91
2022-09-26T07:37:15.052Z,99986.72
2022-09-26T07:42:17.280Z,99981.16
2022-09-26T07:47:37.172Z,99987.94
2022-09-26T07:52:39.918Z,99983.56
2022-09-26T07:57:41.221Z,99972.81
2022-09-26T08:02:45.253Z,99979.50
2022-09-26T08:07:47.964Z,99969.22
2022-09-26T08:12:49.714Z,99955.13
2022-09-26T08:17:51.924Z,99952.94
2022-09-26T08:22:56.313Z,99953.63
2022-09-26T08:27:59.411Z,99947.25
2022-09-26T08:33:02.049Z,99932.19
2022-09-26T08:38:03.754Z,99938.84
2022-09-26T08:43:18.297Z,99933.06
2022-09-26T08:48:27.488Z,99935.94
2022-09-26T08:53:35.200Z,99925.97
2022-09-26T08:58:42.966Z,99935.31
2022-09-26T09:03:52.993Z,99933.41
2022-09-26T09:08:56.285Z,99934.63
2022-09-26T09:14:00.363Z,99924.88
2022-09-26T09:19:04.762Z,99928.63
2022-09-26T09:24:24.975Z,99924.41
2022-09-26T09:29:37.917Z,99922.25
2022-09-26T09:34:41.332Z,99924.34
2022-09-26T09:39:44.643Z,99935.53
2022-09-26T09:44:53.765Z,99924.97
2022-09-26T09:49:55.589Z,99930.63
2022-09-26T09:55:10.616Z,99922.63
2022-09-26T10:00:16.624Z,99908.16
2022-09-26T10:05:36.636Z,99904.53
2022-09-26T10:10:40.731Z,99904.19
2022-09-26T10:15:44.724Z,99892.66
2022-09-26T10:20:53.355Z,99889.09
2022-09-26T10:26:00.053Z,99883.47
2022-09-26T10:31:07.659Z,99882.53
2022-09-26T10:36:28.028Z,99876.06
2022-09-26T10:41:29.368Z,99861.81
2022-09-26T10:46:30.941Z,99858.06
2022-09-26T10:51:32.303Z,99846.91
2022-09-26T10:56:37.035Z,99836.69
2022-09-26T11:01:44.320Z,99829.72
2022-09-26T11:06:45.675Z,99825.13
2022-09-26T11:11:50.593Z,99815.09
2022-09-26T11:16:53.866Z,99819.78
2022-09-26T11:22:08.645Z,99809.28
2022-09-26T11:27:31.585Z,99790.47
2022-09-26T11:32:40.780Z,99792.81
2022-09-26T11:38:06.860Z,99787.56
2022-09-26T11:43:20.131Z,99768.34
2022-09-26T11:48:27.456Z,99768.59
2022-09-26T11:53:39.883Z,99746.75
2022-09-26T11:58:41.168Z,99739.16
2022-09-26T12:04:01.450Z,99718.69
2022-09-26T12:09:07.489Z,99713.44
2022-09-26T12:14:09.299Z,99686.34
2022-09-26T12:19:16.549Z,99673.38
2022-09-26T12:24:27.265Z,99663.78
2022-09-26T12:29:49.915Z,99646.19
2022-09-26T12:35:00.167Z,99626.91
2022-09-26T12:40:09.477Z,99630.09
2022-09-26T12:45:11.285Z,99620.88
2022-09-26T12:50:16.072Z,99608.09
2022-09-26T12:55:36.292Z,99588.66
2022-09-26T13:00:44.683Z,99576.03
2022-09-26T13:05:52.243Z,99575.25
2022-09-26T13:11:05.766Z,99568.56
2022-09-26T13:16:26.476Z,99575.03
2022-09-26T13:21:33.752Z,99577.78
2022-09-26T13:26:46.883Z,99582.25
2022-09-26T13:31:48.262Z,99579.03
2022-09-26T13:36:50.182Z,99575.59
2022-09-26T13:42:01.283Z,99567.97
2022-09-26T13:47:21.421Z,99557.78
2022-09-26T13:52:41.428Z,99562.25
2022-09-26T13:57:43.443Z,99557.09
2022-09-26T14:03:04.848Z,99560.69
2022-09-26T14:08:45.079Z,99553.28
2022-09-26T14:13:47.645Z,99543.81
2022-09-26T14:18:57.922Z,99537.06
2022-09-26T14:24:18.156Z,99526.53
2022-09-26T14:29:29.295Z,99510.22
2022-09-26T14:34:50.867Z,99507.19
2022-09-26T14:40:06.643Z,99497.75
2022-09-26T14:45:18.752Z,99491.28
2022-09-26T14:50:24.479Z,99489.16
2022-09-26T14:55:26.949Z,99489.28
2022-09-26T15:00:35.014Z,99490.34
2022-09-26T15:05:36.635Z,99483.16
2022-09-26T15:10:40.183Z,99478.25
2022-09-26T15:15:47.208Z,99472.25
2022-09-26T15:20:51.757Z,99455.97
2022-09-26T15:25:55.069Z,99444.38
2022-09-26T15:31:20.355Z,99432.56
2022-09-26T15:36:21.927Z,99424.25
2022-09-26T15:41:42.014Z,99414.38
2022-09-26T15:46:43.333Z,99412.09
2022-09-26T15:51:45.180Z,99413.00
2022-09-26T15:56:48.396Z,99386.63
2022-09-26T16:01:49.752Z,99382.34
2022-09-26T16:06:53.459Z,99371.63
2022-09-26T16:11:56.513Z,99370.84
2022-09-26T16:17:11.723Z,99361.28
2022-09-26T16:22:20.608Z,99347.56
2022-09-26T16:27:33.090Z,99345.84
2022-09-26T16:32:35.233Z,99346.63
2022-09-26T16:37:36.695Z,99343.56
2022-09-26T16:42:37.996Z,99338.34
2022-09-26T16:47:47.720Z,99336.50
2022-09-26T16:52:49.068Z,99326.41
2022-09-26T16:57:55.590Z,99316.41
2022-09-26T17:02:57.450Z,99309.84
2022-09-26T17:07:58.780Z,99319.84
2022-09-26T17:13:02.609Z,99302.31
2022-09-26T17:18:06.709Z,99307.25
2022-09-26T17:23:34.935Z,99295.50
2022-09-26T17:28:38.579Z,99295.84
2022-09-26T17:33:41.690Z,99281.31
2022-09-26T17:38:43.355Z,99277.00
2022-09-26T17:43:45.079Z,99273.13
2022-09-26T17:48:46.389Z,99270.72
2022-09-26T17:53:51.113Z,99272.09
2022-09-26T17:58:54.107Z,99266.69
2022-09-26T18:03:57.301Z,99254.97
2022-09-26T18:09:01.833Z,99250.19
2022-09-26T18:14:04.674Z,99237.59
2022-09-26T18:19:14.121Z,99241.78
2022-09-26T18:24:19.815Z,99215.00
2022-09-26T18:29:35.396Z,99220.56
2022-09-26T18:34:36.713Z,99209.09
2022-09-26T18:39:37.984Z,99203.44
2022-09-26T18:44:40.233Z,99197.50
2022-09-26T18:49:43.714Z,99200.25
2022-09-26T18:54:45.768Z,99194.91
2022-09-26T18:59:47.068Z,99187.88
2022-09-26T19:04:49.105Z,99184.38
2022-09-26T19:09:50.458Z,99182.19
2022-09-26T19:14:51.921Z,99181.50
2022-09-26T19:19:53.226Z,99180.03
2022-09-26T19:24:57.028Z,99174.03
2022-09-26T19:30:01.587Z,99168.72
2022-09-26T19:35:04.884Z,99167.09
2022-09-26T19:40:12.411Z,99163.13
2022-09-26T19:45:14.923Z,99165.75
2022-09-26T19:50:18.030Z,99163.38
2022-09-26T19:55:21.600Z,99160.84
2022-09-26T20:00:23.796Z,99153.81
2022-09-26T20:05:26.297Z,99162.22
2022-09-26T20:10:29.119Z,99147.34
2022-09-26T20:15:31.511Z,99151.91
2022-09-26T20:20:34.834Z,99160.53
2022-09-26T20:25:36.616Z,99158.81
2022-09-26T20:30:55.261Z,99157.69
2022-09-26T20:36:03.262Z,99154.06
2022-09-26T20:41:13.478Z,99144.75
2022-09-26T20:46:15.195Z,99134.66
2022-09-26T20:51:20.911Z,99133.03
2022-09-26T20:56:22.228Z,99136.03
2022-09-26T21:01:26.737Z,99135.66
2022-09-26T21:06:33.162Z,99122.28
2022-09-26T21:11:34.473Z,99130.00
2022-09-26T21:16:38.913Z,99113.56
2022-09-26T21:21:40.940Z,99107.56
2022-09-26T21:26:42.317Z,99107.66
2022-09-26T21:31:46.687Z,99115.84
2022-09-26T21:36:48.888Z,99110.03
2022-09-26T21:41:52.504Z,99108.22
2022-09-26T21:46:53.866Z,99103.00
2022-09-26T21:51:57.380Z,99097.22
2022-09-26T21:57:03.028Z,99101.63
2022-09-26T22:02:04.444Z,99101.41
2022-09-26T22:07:05.786Z,99090.41
2022-09-26T22:12:07.150Z,99083.59
2022-09-26T22:17:08.685Z,99088.69
2022-09-26T22:22:10.652Z,99083.63
2022-09-26T22:27:12.080Z,99072.94
2022-09-26T22:32:13.378Z,99078.63
2022-09-26T22:37:15.035Z,99068.63
2022-09-26T22:42:16.332Z,99070.69
2022-09-26T22:47:17.690Z,99064.31
2022-09-26T22:52:19.059Z,99064.78
2022-09-26T22:57:20.395Z,99071.59
2022-09-26T23:02:21.823Z,99060.38
2022-09-26T23:07:23.191Z,99061.50
2022-09-26T23:12:24.493Z,99060.94
2022-09-26T23:17:25.783Z,99061.84
2022-09-26T23:22:27.075Z,99058.19
2022-09-26T23:27:28.521Z,99062.28
2022-09-26T23:32:29.830Z,99061.25
2022-09-26T23:37:32.529Z,99061.50
2022-09-26T23:42:33.933Z,99060.25
2022-09-26T23:47:35.240Z,99059.00
2022-09-26T23:52:36.535Z,99063.09
2022-09-26T23:57:37.849Z,99056.97
